Ana Sayfa
METAR-TAF:

METAR-TAF

Havaalanları :

Anapa Havalimanı

Anapa, Rusya

Enlem: 44-54N, Boylam: 037-19E, yükseklik: 53 m

Güncel hava durumu gözlemi

Rapor saat 22:00 UTC de 49 dakika önce yapıldı.
Rüzgar doğu/kuzeydoğudan 6 kt
Sıcaklık 2°C
Nem 87%
Basınç 1019 hPa
Görüş mesafesi 10 km veya daha fazla

METAR: URKA 202200Z AUTO 06003MPS 9999 // NCD 02/00 Q1019 RMK QFE761/1014

Saat: 01:49 (22:49 UTC)

Tahmin

Rapor saat 19:55 UTC de 2 saat ve 54 dakika önce yapıldı.
Ayın 20'si saat 21 UTC'den ayın 21'si saat 21 UTC'ye kadar geçerli Tahmin
Rüzgar doğu/kuzeydoğudan 12 kt ve 25 kt'a kadar ani rüzgarlar
Görüş mesafesi 10 km veya daha fazla
3000 ft yükseklikte parçalı bulutlu

TAF: URKA 201955Z 2021/2121 06006G13MPS 9999 SCT030

4.000'den fazla havaalanı için hava durumu gözlemleri ve tahminleri (METAR ve TAF raporları).

Kullanılabilir istasyonlar harita üzerinde sarı ve kırmızı noktalarla gösterilir.

İstasyonun adını görmek için fareyi noktanın üzerinde gezdirin.

Sonrasında hava gözlem ve tahminlerini görmek için tıklayın.

Haritayı değiştirmek için: yaklaştırmak için siyah artı işaretli yeşil düğmeye ve uzaklaştırmak için de eksi işaretli düğmeye hızla tıklayın; bitişik haritalar için yeşil okları kullanın.


METAR-TAF: